createdAt,value
2017-11-19T00:02:11.748Z,15.50
2017-11-19T00:04:38.440Z,13.90
2017-11-19T00:07:05.047Z,15.98
2017-11-19T00:09:31.719Z,13.93
2017-11-19T00:11:58.459Z,15.40
2017-11-19T00:14:25.093Z,14.90
2017-11-19T00:16:51.713Z,14.32
2017-11-19T00:19:18.349Z,16.23
2017-11-19T00:21:44.977Z,17.02
2017-11-19T00:24:11.583Z,15.60
2017-11-19T00:26:38.211Z,14.25
2017-11-19T00:29:04.943Z,13.90
2017-11-19T00:31:31.568Z,13.98
2017-11-19T00:33:58.224Z,14.27
2017-11-19T00:36:24.842Z,14.38
2017-11-19T00:38:51.471Z,15.80
2017-11-19T00:41:18.108Z,15.15
2017-11-19T00:43:44.726Z,13.40
2017-11-19T00:46:11.407Z,14.75
2017-11-19T00:48:38.047Z,14.85
2017-11-19T00:51:04.660Z,13.85
2017-11-19T00:53:31.269Z,14.52
2017-11-19T00:55:57.896Z,13.55
2017-11-19T00:58:24.540Z,21.23
2017-11-19T01:00:51.168Z,14.65
2017-11-19T01:03:17.792Z,15.18
2017-11-19T01:05:44.523Z,14.13
2017-11-19T01:08:11.139Z,13.45
2017-11-19T01:10:37.808Z,15.85
2017-11-19T01:13:04.447Z,16.17
2017-11-19T01:15:31.073Z,24.52
2017-11-19T01:17:57.691Z,24.67
2017-11-19T01:20:24.332Z,22.02
2017-11-19T01:22:50.950Z,22.33
2017-11-19T01:25:17.565Z,21.70
2017-11-19T01:27:44.271Z,23.20
2017-11-19T01:30:10.891Z,23.77
2017-11-19T01:32:37.501Z,24.17
2017-11-19T01:35:04.139Z,19.85
2017-11-19T01:37:30.752Z,25.90
2017-11-19T01:39:57.377Z,23.70
2017-11-19T01:42:24.007Z,27.08
2017-11-19T01:44:50.629Z,22.55
2017-11-19T01:47:17.298Z,21.05
2017-11-19T01:49:43.927Z,22.15
2017-11-19T01:52:10.578Z,55.05
2017-11-19T01:54:37.204Z,29.58
2017-11-19T01:57:03.836Z,29.27
2017-11-19T01:59:30.482Z,37.60
2017-11-19T02:01:57.115Z,30.70
2017-11-19T02:04:23.741Z,30.80
2017-11-19T02:06:50.355Z,25.55
2017-11-19T02:09:16.984Z,24.90
2017-11-19T02:11:43.624Z,23.33
2017-11-19T02:14:10.228Z,27.42
2017-11-19T02:16:36.856Z,22.45
2017-11-19T02:19:03.484Z,23.10
2017-11-19T02:21:30.118Z,20.70
2017-11-19T02:23:56.776Z,23.75
2017-11-19T02:26:23.396Z,19.62
2017-11-19T02:28:50.041Z,22.25
2017-11-19T02:31:16.651Z,20.83
2017-11-19T02:33:43.281Z,19.50
2017-11-19T02:36:09.916Z,23.75
2017-11-19T02:38:36.538Z,31.40
2017-11-19T02:41:03.153Z,24.83
2017-11-19T02:43:29.789Z,31.62
2017-11-19T02:45:56.403Z,27.27
2017-11-19T02:48:23.032Z,33.53
2017-11-19T02:50:49.664Z,29.00
2017-11-19T02:53:16.306Z,29.15
2017-11-19T02:55:42.924Z,33.08
2017-11-19T02:58:09.560Z,29.65
2017-11-19T03:00:36.292Z,32.03
2017-11-19T03:03:02.914Z,32.35
2017-11-19T03:05:29.540Z,30.70
2017-11-19T03:07:56.175Z,28.52
2017-11-19T03:10:22.807Z,26.25
2017-11-19T03:12:49.420Z,26.42
2017-11-19T03:15:16.047Z,29.60
2017-11-19T03:17:42.679Z,30.37
2017-11-19T03:20:09.303Z,27.90
2017-11-19T03:22:35.935Z,25.25
2017-11-19T03:25:02.651Z,22.67
2017-11-19T03:27:29.273Z,21.20
2017-11-19T03:29:55.879Z,20.45
2017-11-19T03:32:22.512Z,24.65
2017-11-19T03:34:49.143Z,23.25
2017-11-19T03:37:15.759Z,23.80
2017-11-19T03:39:42.392Z,22.50
2017-11-19T03:42:09.123Z,25.05
2017-11-19T03:44:35.795Z,22.95
2017-11-19T03:47:02.441Z,25.30
2017-11-19T03:49:29.074Z,21.37
2017-11-19T03:51:55.708Z,23.83
2017-11-19T03:54:22.331Z,19.48
2017-11-19T03:56:48.947Z,17.08
2017-11-19T03:59:15.563Z,23.33
2017-11-19T04:01:42.197Z,21.27
2017-11-19T04:04:08.807Z,23.40
2017-11-19T04:06:35.432Z,22.90
2017-11-19T04:09:02.077Z,19.92
2017-11-19T04:11:28.695Z,19.92
2017-11-19T04:13:55.343Z,17.77
2017-11-19T04:16:21.971Z,17.05
2017-11-19T04:18:48.588Z,17.55
2017-11-19T04:21:15.199Z,17.70
2017-11-19T04:23:41.841Z,18.25
2017-11-19T04:26:08.454Z,18.27
2017-11-19T04:28:35.072Z,18.55
2017-11-19T04:31:01.712Z,18.17
2017-11-19T04:33:28.337Z,20.23
2017-11-19T04:35:54.971Z,21.87
2017-11-19T04:38:21.621Z,19.20
2017-11-19T04:40:48.265Z,18.65
2017-11-19T04:43:14.896Z,19.67
2017-11-19T04:45:41.548Z,18.62
2017-11-19T04:48:08.160Z,16.10
2017-11-19T04:50:34.796Z,16.27
2017-11-19T04:53:01.411Z,12.80
2017-11-19T04:55:28.028Z,13.25
2017-11-19T04:57:54.665Z,12.70
2017-11-19T05:00:21.277Z,14.63
2017-11-19T05:02:47.999Z,12.35
2017-11-19T05:05:14.632Z,13.90
2017-11-19T05:07:41.252Z,14.77
2017-11-19T05:10:07.920Z,16.75
2017-11-19T05:12:34.551Z,17.60
2017-11-19T05:15:01.177Z,15.65
2017-11-19T05:17:27.815Z,13.65
2017-11-19T05:19:54.427Z,12.90
2017-11-19T05:22:21.052Z,13.10
2017-11-19T05:24:47.678Z,10.98
2017-11-19T05:27:14.294Z,11.68
2017-11-19T05:29:40.927Z,12.65
2017-11-19T05:32:07.558Z,15.85
2017-11-19T05:34:34.212Z,15.57
2017-11-19T05:37:00.832Z,11.48
2017-11-19T05:39:27.506Z,11.18
2017-11-19T05:41:54.112Z,8.57
2017-11-19T05:44:20.723Z,9.65
2017-11-19T05:46:47.351Z,10.43
2017-11-19T05:49:13.963Z,10.90
2017-11-19T05:51:40.679Z,7.90
2017-11-19T05:54:07.300Z,8.63
2017-11-19T05:56:33.919Z,8.05
2017-11-19T05:59:00.620Z,7.75
2017-11-19T06:01:27.246Z,7.10
2017-11-19T06:03:53.844Z,6.62
2017-11-19T06:06:20.455Z,5.90
2017-11-19T06:08:47.076Z,7.32
2017-11-19T06:11:13.797Z,6.47
2017-11-19T06:13:40.405Z,6.32
2017-11-19T06:16:07.032Z,6.32
2017-11-19T06:18:33.723Z,5.95
2017-11-19T06:21:00.350Z,6.47
2017-11-19T06:23:26.964Z,6.60
2017-11-19T06:25:53.566Z,7.55
2017-11-19T06:28:20.179Z,5.82
2017-11-19T06:30:46.786Z,7.90
2017-11-19T06:33:13.386Z,6.32
2017-11-19T06:35:40.011Z,5.60
2017-11-19T06:38:06.624Z,7.37
2017-11-19T06:40:33.228Z,6.80
2017-11-19T06:42:59.853Z,7.50
2017-11-19T06:45:26.459Z,6.62
2017-11-19T06:47:53.071Z,7.28
2017-11-19T06:50:19.694Z,7.05
2017-11-19T06:52:46.394Z,6.90
2017-11-19T06:55:12.999Z,6.85
2017-11-19T06:57:39.671Z,6.20
2017-11-19T07:00:06.274Z,6.05
2017-11-19T07:02:32.882Z,6.60
2017-11-19T07:04:59.554Z,6.93
2017-11-19T07:07:26.171Z,6.50
2017-11-19T07:09:52.783Z,7.18
2017-11-19T07:12:19.411Z,6.62
2017-11-19T07:14:46.034Z,7.10
2017-11-19T07:17:12.673Z,7.18
2017-11-19T07:19:39.287Z,6.45
2017-11-19T07:22:05.899Z,8.30
2017-11-19T07:24:32.563Z,8.85
2017-11-19T07:26:59.193Z,8.80
2017-11-19T07:29:25.803Z,8.20
2017-11-19T07:31:52.515Z,9.60
2017-11-19T07:34:19.132Z,9.25
2017-11-19T07:36:45.752Z,8.93
2017-11-19T07:39:12.433Z,9.07
2017-11-19T07:41:39.131Z,8.93
2017-11-19T07:44:05.743Z,10.32
2017-11-19T07:46:32.396Z,10.82
2017-11-19T07:48:58.995Z,8.40
2017-11-19T07:51:25.633Z,10.30
2017-11-19T07:53:52.262Z,9.57
2017-11-19T07:56:18.872Z,8.48
2017-11-19T07:58:45.494Z,8.65
2017-11-19T08:01:12.123Z,8.85
2017-11-19T08:03:38.788Z,10.57
2017-11-19T08:06:05.423Z,8.18
2017-11-19T08:08:32.063Z,8.35
2017-11-19T08:10:58.680Z,8.90
2017-11-19T08:13:25.343Z,9.50
2017-11-19T08:15:52.075Z,8.73
2017-11-19T08:18:18.760Z,8.60
2017-11-19T08:20:45.455Z,8.45
2017-11-19T08:23:12.087Z,8.13
2017-11-19T08:25:38.779Z,8.23
2017-11-19T08:28:05.384Z,7.18
2017-11-19T08:30:32.118Z,8.57
2017-11-19T08:32:58.753Z,7.35
2017-11-19T08:35:25.368Z,6.70
2017-11-19T08:37:51.992Z,6.97
2017-11-19T08:40:18.596Z,7.12
2017-11-19T08:42:45.200Z,7.47
2017-11-19T08:45:11.835Z,8.00
2017-11-19T08:47:38.452Z,6.97
2017-11-19T08:50:05.071Z,8.00
2017-11-19T08:52:31.702Z,7.37
2017-11-19T08:54:58.303Z,7.53
2017-11-19T08:57:24.916Z,7.30
2017-11-19T08:59:51.583Z,7.53
2017-11-19T09:02:18.205Z,6.95
2017-11-19T09:04:44.830Z,7.30
2017-11-19T09:07:11.450Z,6.97
2017-11-19T09:09:38.063Z,7.07
2017-11-19T09:12:04.787Z,7.85
2017-11-19T09:14:31.390Z,6.40
2017-11-19T09:16:58.016Z,7.45
2017-11-19T09:19:24.624Z,7.00
2017-11-19T09:21:51.336Z,7.22
2017-11-19T09:24:17.971Z,8.00
2017-11-19T09:26:44.640Z,6.68
2017-11-19T09:29:11.253Z,5.82
2017-11-19T09:31:37.873Z,6.43
2017-11-19T09:34:04.486Z,6.30
2017-11-19T09:36:31.100Z,6.40
2017-11-19T09:38:57.804Z,5.90
2017-11-19T09:41:24.407Z,6.15
2017-11-19T09:43:51.025Z,6.55
2017-11-19T09:46:18.104Z,6.43
2017-11-19T09:48:44.779Z,6.30
2017-11-19T09:51:11.387Z,6.40
2017-11-19T09:53:38.027Z,5.60
2017-11-19T09:56:04.639Z,6.55
2017-11-19T09:58:31.254Z,6.40
2017-11-19T10:00:57.976Z,7.28
2017-11-19T10:03:24.596Z,5.80
2017-11-19T10:05:51.195Z,6.43
2017-11-19T10:08:17.832Z,6.75
2017-11-19T10:10:44.483Z,6.95
2017-11-19T10:13:11.207Z,7.25
2017-11-19T10:15:37.846Z,7.10
2017-11-19T10:18:04.456Z,7.00
2017-11-19T10:20:31.095Z,6.22
2017-11-19T10:22:57.763Z,6.35
2017-11-19T10:25:24.472Z,6.47
2017-11-19T10:27:51.086Z,6.85
2017-11-19T10:30:17.732Z,6.20
2017-11-19T10:32:44.343Z,7.60
2017-11-19T10:35:10.946Z,6.82
2017-11-19T10:37:37.565Z,6.97
2017-11-19T10:40:04.201Z,7.90
2017-11-19T10:42:30.812Z,6.55
2017-11-19T10:44:57.449Z,6.50
2017-11-19T10:47:24.051Z,7.85
2017-11-19T10:49:50.669Z,6.60
2017-11-19T10:52:17.276Z,6.75
2017-11-19T10:54:43.922Z,7.07
2017-11-19T10:57:11.484Z,6.93
2017-11-19T10:59:38.100Z,6.57
2017-11-19T11:02:04.712Z,6.93
2017-11-19T11:04:31.336Z,6.85
2017-11-19T11:06:58.046Z,6.78
2017-11-19T11:09:24.682Z,6.70
2017-11-19T11:11:51.327Z,7.60
2017-11-19T11:14:17.951Z,6.35
2017-11-19T11:16:44.599Z,6.55
2017-11-19T11:19:11.213Z,6.68
2017-11-19T11:21:37.818Z,7.05
2017-11-19T11:24:04.520Z,6.80
2017-11-19T11:26:31.155Z,6.95
2017-11-19T11:28:57.769Z,7.30
2017-11-19T11:31:24.404Z,6.40
2017-11-19T11:33:51.005Z,7.55
2017-11-19T11:36:17.615Z,7.50
2017-11-19T11:38:44.238Z,7.18
2017-11-19T11:41:10.860Z,7.68
2017-11-19T11:43:37.528Z,7.45
2017-11-19T11:46:04.151Z,7.12
2017-11-19T11:48:30.775Z,7.15
2017-11-19T11:50:57.384Z,5.82
2017-11-19T11:53:24.089Z,6.53
2017-11-19T11:55:50.707Z,6.95
2017-11-19T11:58:17.387Z,7.25
2017-11-19T12:00:44.352Z,6.15
2017-11-19T12:03:11.196Z,6.57
2017-11-19T12:05:38.220Z,6.53
2017-11-19T12:08:04.857Z,5.45
2017-11-19T12:10:31.570Z,6.80
2017-11-19T12:12:58.215Z,5.72
2017-11-19T12:15:24.835Z,6.45
2017-11-19T12:17:51.448Z,5.37
2017-11-19T12:20:18.079Z,5.55
2017-11-19T12:22:44.715Z,6.25
2017-11-19T12:25:11.420Z,6.78
2017-11-19T12:27:38.319Z,6.20
2017-11-19T12:30:05.454Z,5.75
2017-11-19T12:32:32.056Z,6.65
2017-11-19T12:34:59.087Z,6.40
2017-11-19T12:37:26.600Z,7.43
2017-11-19T12:39:53.297Z,6.50
2017-11-19T12:42:19.905Z,6.47
2017-11-19T12:44:46.572Z,6.03
2017-11-19T12:47:13.235Z,6.12
2017-11-19T12:49:39.844Z,6.40
2017-11-19T12:52:06.459Z,7.62
2017-11-19T12:54:33.088Z,7.82
2017-11-19T12:56:59.779Z,7.05
2017-11-19T12:59:27.083Z,7.65
2017-11-19T13:01:53.718Z,7.28
2017-11-19T13:04:20.756Z,7.82
2017-11-19T13:06:47.709Z,7.40
2017-11-19T13:09:14.592Z,7.82
2017-11-19T13:11:41.206Z,7.00
2017-11-19T13:14:07.803Z,7.57
2017-11-19T13:16:34.425Z,6.60
2017-11-19T13:19:01.041Z,7.32
2017-11-19T13:21:27.676Z,7.07
2017-11-19T13:23:54.292Z,6.72
2017-11-19T13:26:20.898Z,7.00
2017-11-19T13:28:47.507Z,7.20
2017-11-19T13:31:14.122Z,7.35
2017-11-19T13:33:40.740Z,7.53
2017-11-19T13:36:07.360Z,6.95
2017-11-19T13:38:33.991Z,7.05
2017-11-19T13:41:00.616Z,8.25
2017-11-19T13:43:27.356Z,7.20
2017-11-19T13:45:53.969Z,6.65
2017-11-19T13:48:20.588Z,7.22
2017-11-19T13:50:47.229Z,6.40
2017-11-19T13:53:13.832Z,6.70
2017-11-19T13:55:40.447Z,8.18
2017-11-19T13:58:07.074Z,6.53
2017-11-19T14:00:33.696Z,7.15
2017-11-19T14:03:00.400Z,7.53
2017-11-19T14:05:27.017Z,6.95
2017-11-19T14:07:53.645Z,6.90
2017-11-19T14:10:20.305Z,7.32
2017-11-19T14:12:46.907Z,6.95
2017-11-19T14:15:13.564Z,8.32
2017-11-19T14:17:40.204Z,7.32
2017-11-19T14:20:06.820Z,7.28
2017-11-19T14:22:33.434Z,6.90
2017-11-19T14:25:00.089Z,7.68
2017-11-19T14:27:26.691Z,7.15
2017-11-19T14:29:53.303Z,7.43
2017-11-19T14:32:19.928Z,7.62
2017-11-19T14:34:46.549Z,7.40
2017-11-19T14:37:13.168Z,6.85
2017-11-19T14:39:39.800Z,7.00
2017-11-19T14:42:06.409Z,7.03
2017-11-19T14:44:33.128Z,6.95
2017-11-19T14:46:59.750Z,6.40
2017-11-19T14:49:26.372Z,6.90
2017-11-19T14:51:52.985Z,6.78
2017-11-19T14:54:19.620Z,6.53
2017-11-19T14:56:46.315Z,6.20
2017-11-19T14:59:12.950Z,6.93
2017-11-19T15:01:39.761Z,8.68
2017-11-19T15:04:06.388Z,6.85
2017-11-19T15:06:33.052Z,6.32
2017-11-19T15:08:59.980Z,8.48
2017-11-19T15:11:26.582Z,6.93
2017-11-19T15:13:53.217Z,6.30
2017-11-19T15:16:19.825Z,6.07
2017-11-19T15:18:48.060Z,7.10
2017-11-19T15:21:14.702Z,6.53
2017-11-19T15:23:41.337Z,6.20
2017-11-19T15:26:07.944Z,6.60
2017-11-19T15:28:34.680Z,6.62
2017-11-19T15:31:01.354Z,6.90
2017-11-19T15:33:27.958Z,5.65
2017-11-19T15:35:54.592Z,6.22
2017-11-19T15:38:21.208Z,6.37
2017-11-19T15:40:47.832Z,6.25
2017-11-19T15:43:14.505Z,6.20
2017-11-19T15:45:41.118Z,6.70
2017-11-19T15:48:07.749Z,6.30
2017-11-19T15:50:34.378Z,6.57
2017-11-19T15:53:01.016Z,6.50
2017-11-19T15:55:27.630Z,6.85
2017-11-19T15:57:54.256Z,7.25
2017-11-19T16:00:20.954Z,7.07
2017-11-19T16:02:47.580Z,7.87
2017-11-19T16:05:14.192Z,7.45
2017-11-19T16:07:40.802Z,7.25
2017-11-19T16:10:07.446Z,7.07
2017-11-19T16:12:34.060Z,6.12
2017-11-19T16:15:00.676Z,7.68
2017-11-19T16:17:27.299Z,6.82
2017-11-19T16:19:53.928Z,7.35
2017-11-19T16:22:20.559Z,6.25
2017-11-19T16:24:47.223Z,6.97
2017-11-19T16:27:13.903Z,8.57
2017-11-19T16:29:40.508Z,7.10
2017-11-19T16:32:07.140Z,6.60
2017-11-19T16:34:33.756Z,8.40
2017-11-19T16:37:00.378Z,6.75
2017-11-19T16:39:27.546Z,8.50
2017-11-19T16:41:54.279Z,7.50
2017-11-19T16:44:20.898Z,6.55
2017-11-19T16:46:47.587Z,7.85
2017-11-19T16:49:14.280Z,7.05
2017-11-19T16:51:40.896Z,7.28
2017-11-19T16:54:07.570Z,7.28
2017-11-19T16:56:34.544Z,7.28
2017-11-19T16:59:04.137Z,7.25
2017-11-19T17:01:30.915Z,9.15
2017-11-19T17:03:58.027Z,8.95
2017-11-19T17:06:24.812Z,8.27
2017-11-19T17:08:51.464Z,8.25
2017-11-19T17:11:18.077Z,6.90
2017-11-19T17:13:44.712Z,7.50
2017-11-19T17:16:12.231Z,6.60
2017-11-19T17:18:38.895Z,6.65
2017-11-19T17:21:05.531Z,6.93
2017-11-19T17:23:32.152Z,6.95
2017-11-19T17:25:58.780Z,7.00
2017-11-19T17:28:25.404Z,6.32
2017-11-19T17:30:52.028Z,6.62
2017-11-19T17:33:18.634Z,7.70
2017-11-19T17:35:51.068Z,7.25
2017-11-19T17:38:17.686Z,7.05
2017-11-19T17:40:44.351Z,8.70
2017-11-19T17:43:10.985Z,7.05
2017-11-19T17:45:37.616Z,7.32
2017-11-19T17:48:04.215Z,6.90
2017-11-19T17:50:30.836Z,6.90
2017-11-19T17:52:57.436Z,7.05
2017-11-19T17:55:24.052Z,6.85
2017-11-19T17:57:50.723Z,7.22
2017-11-19T18:00:17.644Z,7.82
2017-11-19T18:02:44.251Z,7.37
2017-11-19T18:05:10.883Z,7.35
2017-11-19T18:07:37.781Z,7.07
2017-11-19T18:10:04.395Z,7.30
2017-11-19T18:12:31.084Z,7.80
2017-11-19T18:14:57.725Z,7.80
2017-11-19T18:17:24.331Z,8.05
2017-11-19T18:19:50.960Z,8.27
2017-11-19T18:22:17.576Z,7.90
2017-11-19T18:24:44.188Z,6.90
2017-11-19T18:27:10.812Z,8.05
2017-11-19T18:29:37.528Z,8.60
2017-11-19T18:32:04.132Z,8.05
2017-11-19T18:34:30.764Z,7.87
2017-11-19T18:36:57.395Z,8.77
2017-11-19T18:39:24.004Z,8.23
2017-11-19T18:41:50.640Z,9.60
2017-11-19T18:44:17.251Z,7.45
2017-11-19T18:46:43.871Z,8.50
2017-11-19T18:49:10.490Z,7.97
2017-11-19T18:51:37.100Z,8.70
2017-11-19T18:54:03.706Z,7.40
2017-11-19T18:56:30.334Z,7.70
2017-11-19T18:58:57.015Z,7.15
2017-11-19T19:01:23.622Z,7.05
2017-11-19T19:03:50.257Z,7.82
2017-11-19T19:06:16.931Z,7.22
2017-11-19T19:08:43.549Z,6.95
2017-11-19T19:13:41.108Z,7.60
2017-11-19T19:16:07.718Z,7.57
2017-11-19T19:18:34.349Z,7.62
2017-11-19T19:21:01.246Z,7.45
2017-11-19T19:23:28.005Z,7.57
2017-11-19T19:25:54.639Z,7.65
2017-11-19T19:28:21.255Z,7.40
2017-11-19T19:30:47.927Z,7.60
2017-11-19T19:33:14.554Z,8.35
2017-11-19T19:35:41.237Z,6.80
2017-11-19T19:38:07.856Z,7.95
2017-11-19T19:40:34.467Z,8.18
2017-11-19T19:43:01.146Z,6.75
2017-11-19T19:45:27.867Z,8.25
2017-11-19T19:47:54.479Z,8.25
2017-11-19T19:50:21.146Z,7.85
2017-11-19T19:52:47.790Z,8.48
2017-11-19T19:55:14.402Z,7.75
2017-11-19T19:57:41.075Z,7.93
2017-11-19T20:00:07.709Z,9.05
2017-11-19T20:02:34.325Z,8.10
2017-11-19T20:05:00.927Z,7.40
2017-11-19T20:07:27.542Z,7.62
2017-11-19T20:09:54.157Z,8.10
2017-11-19T20:12:20.771Z,7.90
2017-11-19T20:14:47.399Z,7.72
2017-11-19T20:17:13.999Z,7.93
2017-11-19T20:19:40.624Z,7.22
2017-11-19T20:22:07.242Z,7.43
2017-11-19T20:24:33.859Z,7.93
2017-11-19T20:27:00.464Z,7.03
2017-11-19T20:29:27.775Z,8.15
2017-11-19T20:31:55.708Z,7.65
2017-11-19T20:34:22.352Z,7.82
2017-11-19T20:36:48.975Z,8.55
2017-11-19T20:39:16.432Z,7.65
2017-11-19T20:41:43.987Z,7.70
2017-11-19T20:44:11.651Z,8.38
2017-11-19T20:46:39.232Z,8.43
2017-11-19T20:49:05.855Z,8.27
2017-11-19T20:51:32.554Z,8.70
2017-11-19T20:53:59.170Z,9.75
2017-11-19T20:56:25.811Z,8.02
2017-11-19T20:58:53.245Z,9.75
2017-11-19T21:01:20.383Z,6.62
2017-11-19T21:03:47.679Z,8.90
2017-11-19T21:06:16.117Z,9.30
2017-11-19T21:08:43.279Z,6.53
2017-11-19T21:11:10.517Z,8.52
2017-11-19T21:13:37.171Z,8.40
2017-11-19T21:16:03.898Z,7.25
2017-11-19T21:18:30.522Z,8.02
2017-11-19T21:20:57.126Z,8.10
2017-11-19T21:23:23.780Z,8.10
2017-11-19T21:25:50.384Z,8.15
2017-11-19T21:28:18.894Z,7.62
2017-11-19T21:30:43.626Z,7.32
2017-11-19T21:33:10.262Z,8.10
2017-11-19T21:35:36.872Z,6.30
2017-11-19T21:38:03.490Z,7.53
2017-11-19T21:40:30.104Z,7.90
2017-11-19T21:42:56.759Z,8.55
2017-11-19T21:45:23.405Z,8.27
2017-11-19T21:47:50.047Z,8.25
2017-11-19T21:50:16.655Z,7.50
2017-11-19T21:52:43.327Z,7.47
2017-11-19T21:55:09.931Z,6.05
2017-11-19T21:57:36.551Z,8.18
2017-11-19T22:00:03.188Z,8.68
2017-11-19T22:02:29.832Z,5.93
2017-11-19T22:04:56.434Z,7.90
2017-11-19T22:07:23.059Z,8.05
2017-11-19T22:09:49.663Z,7.72
2017-11-19T22:12:16.275Z,8.43
2017-11-19T22:14:42.891Z,7.50
2017-11-19T22:17:09.505Z,9.02
2017-11-19T22:19:36.106Z,7.45
2017-11-19T22:22:02.742Z,5.60
2017-11-19T22:24:29.362Z,7.57
2017-11-19T22:26:55.980Z,7.53
2017-11-19T22:29:22.607Z,6.70
2017-11-19T22:31:49.211Z,7.85
2017-11-19T22:34:15.823Z,7.30
2017-11-19T22:36:42.442Z,7.90
2017-11-19T22:39:09.055Z,8.18
2017-11-19T22:41:35.658Z,8.82
2017-11-19T22:44:02.294Z,7.75
2017-11-19T22:46:28.916Z,7.78
2017-11-19T22:48:55.536Z,7.97
2017-11-19T22:51:22.166Z,9.07
2017-11-19T22:53:48.772Z,8.48
2017-11-19T22:56:15.372Z,8.40
2017-11-19T22:58:42.010Z,9.43
2017-11-19T23:01:08.620Z,9.05
2017-11-19T23:03:35.249Z,9.25
2017-11-19T23:06:01.872Z,8.77
2017-11-19T23:08:28.492Z,10.13
2017-11-19T23:10:55.104Z,8.60
2017-11-19T23:13:21.726Z,9.65
2017-11-19T23:15:48.340Z,8.73
2017-11-19T23:18:15.001Z,8.73
2017-11-19T23:20:42.087Z,7.62
2017-11-19T23:23:08.690Z,9.43
2017-11-19T23:25:35.336Z,8.50
2017-11-19T23:28:01.944Z,8.40
2017-11-19T23:30:28.554Z,8.32
2017-11-19T23:32:55.235Z,9.43
2017-11-19T23:35:21.859Z,8.50
2017-11-19T23:37:48.512Z,8.43
2017-11-19T23:40:15.148Z,9.65
2017-11-19T23:42:41.769Z,8.93
2017-11-19T23:45:08.432Z,8.13
2017-11-19T23:47:35.063Z,6.93
2017-11-19T23:50:01.687Z,9.07
2017-11-19T23:52:28.295Z,8.35
2017-11-19T23:54:54.932Z,8.73
2017-11-19T23:57:21.626Z,8.75
2017-11-19T23:59:48.231Z,8.30
